createdAt,value
2022-08-16T00:01:24.772Z,12.50
2022-08-16T00:03:56.114Z,12.13
2022-08-16T00:06:24.964Z,11.83
2022-08-16T00:08:53.252Z,12.57
2022-08-16T00:11:22.848Z,12.00
2022-08-16T00:13:54.764Z,12.20
2022-08-16T00:17:05.988Z,12.00
2022-08-16T00:19:15.952Z,11.73
2022-08-16T00:21:44.992Z,13.13
2022-08-16T00:24:14.070Z,11.83
2022-08-16T00:27:01.698Z,12.90
2022-08-16T00:29:30.182Z,11.77
2022-08-16T00:32:05.983Z,11.73
2022-08-16T00:34:45.131Z,11.77
2022-08-16T00:37:24.409Z,12.07
2022-08-16T00:39:57.760Z,11.77
2022-08-16T00:42:29.614Z,11.83
2022-08-16T00:45:08.453Z,12.60
2022-08-16T00:47:42.527Z,12.13
2022-08-16T00:50:20.819Z,12.20
2022-08-16T00:52:51.248Z,11.77
2022-08-16T00:55:23.107Z,11.93
2022-08-16T00:57:59.522Z,13.27
2022-08-16T01:00:32.347Z,12.73
2022-08-16T01:03:04.113Z,12.27
2022-08-16T01:05:34.150Z,12.20
2022-08-16T01:08:34.858Z,12.27
2022-08-16T01:10:53.150Z,12.67
2022-08-16T01:13:26.654Z,12.80
2022-08-16T01:16:02.944Z,12.50
2022-08-16T01:18:40.029Z,12.07
2022-08-16T01:21:33.467Z,12.23
2022-08-16T01:24:52.726Z,12.30
2022-08-16T01:27:06.824Z,13.07
2022-08-16T01:29:58.368Z,12.97
2022-08-16T01:32:33.457Z,12.20
2022-08-16T01:35:04.196Z,13.13
2022-08-16T01:37:42.296Z,12.37
2022-08-16T01:40:15.425Z,12.10
2022-08-16T01:42:48.134Z,11.97
2022-08-16T01:45:19.939Z,13.60
2022-08-16T01:47:50.996Z,12.23
2022-08-16T01:50:41.732Z,12.33
2022-08-16T01:53:12.042Z,12.67
2022-08-16T01:55:46.107Z,14.27
2022-08-16T01:58:24.192Z,12.60
2022-08-16T02:00:52.352Z,12.20
2022-08-16T02:03:24.326Z,12.57
2022-08-16T02:05:55.043Z,12.97
2022-08-16T02:08:33.631Z,13.20
2022-08-16T02:11:05.692Z,12.17
2022-08-16T02:13:34.028Z,12.70
2022-08-16T02:16:03.229Z,11.67
2022-08-16T02:18:32.156Z,11.83
2022-08-16T02:21:03.424Z,13.30
2022-08-16T02:23:33.868Z,11.70
2022-08-16T02:26:03.555Z,13.10
2022-08-16T02:28:32.184Z,12.77
2022-08-16T02:31:07.716Z,11.60
2022-08-16T02:33:44.625Z,11.90
2022-08-16T02:36:47.624Z,12.27
2022-08-16T02:39:10.588Z,12.67
2022-08-16T02:41:44.139Z,12.43
2022-08-16T02:44:14.036Z,10.80
2022-08-16T02:46:50.388Z,11.97
2022-08-16T02:49:21.940Z,11.40
2022-08-16T02:52:00.769Z,10.80
2022-08-16T02:54:29.377Z,10.70
2022-08-16T02:56:58.983Z,11.20
2022-08-16T02:59:28.673Z,11.00
2022-08-16T03:02:10.405Z,10.90
2022-08-16T03:04:51.927Z,11.30
2022-08-16T03:07:27.582Z,10.67
2022-08-16T03:10:00.561Z,11.33
2022-08-16T03:12:36.744Z,11.07
2022-08-16T03:15:07.285Z,10.90
2022-08-16T03:17:36.914Z,12.20
2022-08-16T03:20:32.215Z,10.70
2022-08-16T03:23:01.934Z,11.00
2022-08-16T03:25:41.137Z,11.13
2022-08-16T03:28:17.225Z,11.20
2022-08-16T03:30:47.565Z,11.57
2022-08-16T03:33:16.464Z,11.03
2022-08-16T03:35:45.292Z,10.73
2022-08-16T03:38:34.201Z,10.97
2022-08-16T03:41:05.601Z,10.93
2022-08-16T03:43:54.937Z,10.77
2022-08-16T03:46:48.347Z,10.47
2022-08-16T03:49:14.059Z,10.43
2022-08-16T03:51:47.207Z,10.23
2022-08-16T03:54:16.040Z,10.73
2022-08-16T03:56:56.927Z,10.30
2022-08-16T03:59:29.271Z,10.10
2022-08-16T04:01:58.805Z,9.70
2022-08-16T04:04:33.322Z,10.23
2022-08-16T04:07:04.278Z,10.93
2022-08-16T04:09:37.905Z,10.47
2022-08-16T04:12:10.836Z,11.20
2022-08-16T04:14:46.908Z,9.63
2022-08-16T04:17:17.078Z,10.33
2022-08-16T04:19:46.595Z,10.13
2022-08-16T04:22:17.359Z,10.50
2022-08-16T04:24:54.283Z,9.87
2022-08-16T04:27:24.410Z,9.80
2022-08-16T04:29:54.807Z,9.67
2022-08-16T04:32:31.648Z,9.83
2022-08-16T04:35:03.419Z,9.13
2022-08-16T04:37:42.012Z,9.80
2022-08-16T04:40:21.905Z,9.50
2022-08-16T04:42:53.557Z,9.27
2022-08-16T04:45:35.656Z,9.97
2022-08-16T04:48:05.009Z,9.47
2022-08-16T04:50:34.224Z,8.90
2022-08-16T04:53:02.429Z,8.53
2022-08-16T04:55:37.736Z,8.40
2022-08-16T04:58:45.128Z,8.00
2022-08-16T05:00:58.782Z,9.00
2022-08-16T05:03:27.271Z,8.40
2022-08-16T05:06:04.829Z,7.60
2022-08-16T05:08:34.493Z,8.33
2022-08-16T05:11:08.378Z,8.60
2022-08-16T05:13:40.334Z,7.67
2022-08-16T05:16:20.195Z,7.50
2022-08-16T05:18:51.801Z,8.63
2022-08-16T05:21:21.450Z,7.90
2022-08-16T05:23:55.963Z,7.63
2022-08-16T05:26:28.401Z,7.63
2022-08-16T05:28:58.094Z,7.40
2022-08-16T05:31:30.372Z,7.57
2022-08-16T05:34:00.574Z,7.37
2022-08-16T05:36:34.017Z,6.87
2022-08-16T05:39:07.802Z,7.27
2022-08-16T05:41:45.075Z,7.03
2022-08-16T05:44:24.028Z,7.30
2022-08-16T05:46:56.369Z,7.27
2022-08-16T05:49:39.188Z,6.47
2022-08-16T05:52:20.812Z,6.33
2022-08-16T05:54:58.465Z,7.17
2022-08-16T05:57:35.574Z,7.13
2022-08-16T06:00:09.185Z,6.90
2022-08-16T06:02:44.083Z,6.73
2022-08-16T06:05:12.827Z,6.57
2022-08-16T06:07:58.410Z,6.80
2022-08-16T06:10:31.946Z,6.40
2022-08-16T06:13:01.618Z,6.57
2022-08-16T06:15:32.262Z,6.43
2022-08-16T06:18:02.526Z,6.60
2022-08-16T06:20:36.032Z,6.70
2022-08-16T06:23:11.836Z,6.93
2022-08-16T06:25:53.035Z,7.27
2022-08-16T06:28:35.615Z,6.60
2022-08-16T06:31:05.117Z,5.93
2022-08-16T06:33:41.519Z,6.47
2022-08-16T06:36:11.833Z,6.67
2022-08-16T06:38:55.296Z,6.97
2022-08-16T06:41:27.344Z,6.50
2022-08-16T06:43:57.034Z,6.73
2022-08-16T06:46:32.035Z,7.43
2022-08-16T06:49:02.354Z,6.80
2022-08-16T06:51:48.023Z,6.67
2022-08-16T06:54:19.065Z,6.43
2022-08-16T06:56:47.589Z,6.37
2022-08-16T06:59:21.030Z,6.20
2022-08-16T07:01:55.443Z,6.27
2022-08-16T07:04:32.355Z,6.27
2022-08-16T07:07:05.933Z,6.70
2022-08-16T07:09:34.233Z,6.70
2022-08-16T07:12:03.544Z,6.40
2022-08-16T07:14:32.851Z,6.33
2022-08-16T07:17:01.428Z,5.90
2022-08-16T07:20:03.260Z,6.60
2022-08-16T07:22:38.386Z,6.03
2022-08-16T07:25:09.935Z,6.70
2022-08-16T07:27:38.482Z,6.77
2022-08-16T07:30:39.373Z,6.30
2022-08-16T07:32:58.343Z,6.40
2022-08-16T07:35:28.082Z,6.20
2022-08-16T07:37:56.162Z,6.73
2022-08-16T07:40:56.398Z,6.30
2022-08-16T07:43:14.866Z,6.63
2022-08-16T07:45:48.252Z,6.63
2022-08-16T07:48:21.773Z,6.43
2022-08-16T07:50:57.851Z,6.60
2022-08-16T07:53:43.775Z,6.60
2022-08-16T07:56:12.607Z,6.70
2022-08-16T07:58:43.350Z,6.50
2022-08-16T08:01:13.105Z,6.23
2022-08-16T08:03:49.170Z,6.27
2022-08-16T08:06:20.574Z,6.70
2022-08-16T08:08:52.386Z,6.50
2022-08-16T08:11:23.598Z,6.53
2022-08-16T08:13:53.924Z,7.40
2022-08-16T08:16:30.434Z,7.03
2022-08-16T08:19:02.751Z,7.40
2022-08-16T08:21:59.118Z,7.27
2022-08-16T08:24:32.169Z,6.77
2022-08-16T08:27:02.453Z,6.90
2022-08-16T08:29:36.845Z,6.43
2022-08-16T08:32:57.400Z,6.87
2022-08-16T08:35:03.026Z,6.73
2022-08-16T08:37:55.421Z,6.10
2022-08-16T08:40:26.712Z,6.60
2022-08-16T08:42:57.854Z,6.40
2022-08-16T08:45:47.995Z,6.80
2022-08-16T08:48:34.341Z,6.83
2022-08-16T08:51:04.650Z,6.53
2022-08-16T08:53:36.293Z,6.67
2022-08-16T08:56:23.496Z,6.83
2022-08-16T08:58:54.013Z,6.70
2022-08-16T09:01:31.977Z,7.10
2022-08-16T09:04:06.547Z,6.80
2022-08-16T09:06:35.632Z,6.80
2022-08-16T09:09:16.544Z,6.60
2022-08-16T09:12:04.164Z,7.13
2022-08-16T09:14:36.293Z,6.53
2022-08-16T09:17:11.939Z,6.70
2022-08-16T09:19:55.149Z,7.20
2022-08-16T09:22:25.290Z,7.13
2022-08-16T09:25:09.653Z,6.97
2022-08-16T09:27:56.516Z,6.90
2022-08-16T09:30:33.409Z,6.70
2022-08-16T09:33:07.545Z,6.90
2022-08-16T09:35:39.057Z,7.50
2022-08-16T09:38:08.612Z,7.23
2022-08-16T09:40:42.564Z,7.20
2022-08-16T09:43:37.803Z,6.97
2022-08-16T09:46:01.130Z,7.17
2022-08-16T09:48:44.294Z,7.43
2022-08-16T09:51:19.501Z,7.00
2022-08-16T09:53:53.739Z,7.60
2022-08-16T09:56:28.638Z,8.00
2022-08-16T09:59:03.746Z,7.43
2022-08-16T10:01:36.631Z,9.03
2022-08-16T10:04:29.735Z,38.57
2022-08-16T10:06:55.558Z,15.63
2022-08-16T10:09:54.405Z,8.03
2022-08-16T10:12:42.702Z,8.27
2022-08-16T10:15:16.187Z,7.83
2022-08-16T10:18:00.620Z,9.03
2022-08-16T10:20:32.658Z,8.13
2022-08-16T10:23:07.300Z,7.80
2022-08-16T10:27:20.111Z,8.60
2022-08-16T10:28:32.585Z,9.00
2022-08-16T10:31:12.047Z,8.47
2022-08-16T10:33:46.278Z,8.03
2022-08-16T10:36:39.028Z,8.70
2022-08-16T10:39:04.347Z,8.47
2022-08-16T10:41:33.116Z,8.60
2022-08-16T10:44:03.092Z,8.53
2022-08-16T10:46:33.815Z,8.87
2022-08-16T10:49:10.250Z,9.03
2022-08-16T10:52:03.088Z,8.90
2022-08-16T10:54:29.599Z,8.93
2022-08-16T10:56:59.297Z,8.97
2022-08-16T10:59:32.809Z,8.47
2022-08-16T11:02:58.530Z,8.23
2022-08-16T11:05:11.624Z,8.40
2022-08-16T11:07:43.658Z,8.63
2022-08-16T11:16:00.372Z,9.00
2022-08-16T11:19:03.130Z,8.27
2022-08-16T11:21:29.445Z,8.47
2022-08-16T11:24:42.572Z,8.47
2022-08-16T11:27:20.431Z,8.70
2022-08-16T11:29:55.142Z,8.67
2022-08-16T11:32:31.181Z,8.80
2022-08-16T11:35:10.839Z,8.57
2022-08-16T11:40:40.632Z,9.50
2022-08-16T11:43:16.586Z,9.07
2022-08-16T11:45:54.108Z,8.77
2022-08-16T11:48:29.479Z,9.63
2022-08-16T11:50:59.089Z,7.90
2022-08-16T11:53:29.129Z,8.80
2022-08-16T11:56:04.837Z,8.57
2022-08-16T11:58:35.346Z,8.97
2022-08-16T12:01:03.528Z,8.87
2022-08-16T12:03:34.784Z,9.10
2022-08-16T12:06:11.265Z,8.63
2022-08-16T12:09:02.170Z,9.50
2022-08-16T12:11:33.310Z,8.87
2022-08-16T12:14:01.791Z,8.67
2022-08-16T12:16:34.093Z,6.63
2022-08-16T12:19:05.113Z,5.23
2022-08-16T12:21:35.895Z,4.70
2022-08-16T12:24:23.887Z,4.93
2022-08-16T12:26:52.360Z,5.07
2022-08-16T12:29:21.205Z,5.90
2022-08-16T12:32:00.505Z,5.90
2022-08-16T12:34:47.938Z,6.53
2022-08-16T12:37:19.568Z,6.83
2022-08-16T12:39:51.304Z,6.77
2022-08-16T12:42:24.442Z,6.80
2022-08-16T12:45:03.431Z,6.47
2022-08-16T12:47:49.348Z,5.97
2022-08-16T12:50:19.309Z,5.93
2022-08-16T12:52:52.949Z,5.90
2022-08-16T12:55:24.051Z,6.47
2022-08-16T12:58:02.643Z,7.03
2022-08-16T13:00:46.533Z,6.43
2022-08-16T13:03:26.670Z,6.67
2022-08-16T13:05:58.222Z,6.80
2022-08-16T13:08:27.538Z,6.70
2022-08-16T13:11:00.299Z,7.33
2022-08-16T13:13:33.086Z,7.10
2022-08-16T13:16:15.510Z,7.13
2022-08-16T13:18:52.337Z,7.83
2022-08-16T13:21:27.524Z,7.73
2022-08-16T13:23:55.987Z,8.73
2022-08-16T13:26:26.402Z,8.30
2022-08-16T13:28:55.005Z,7.57
2022-08-16T13:31:23.867Z,7.53
2022-08-16T13:33:54.529Z,8.03
2022-08-16T13:39:17.384Z,8.07
2022-08-16T13:41:54.200Z,8.37
2022-08-16T13:44:36.036Z,9.80
2022-08-16T13:47:11.673Z,9.33
2022-08-16T13:49:43.326Z,8.87
2022-08-16T13:52:14.039Z,9.10
2022-08-16T13:54:42.673Z,9.30
2022-08-16T13:57:11.573Z,9.63
2022-08-16T13:59:41.455Z,8.97
2022-08-16T14:02:11.439Z,9.20
2022-08-16T14:04:41.650Z,9.00
2022-08-16T14:07:19.922Z,10.93
2022-08-16T14:09:55.261Z,9.50
2022-08-16T14:12:26.959Z,9.67
2022-08-16T14:14:57.460Z,9.90
2022-08-16T14:17:26.977Z,8.43
2022-08-16T14:19:59.917Z,9.87
2022-08-16T14:22:35.675Z,9.87
2022-08-16T14:25:11.164Z,9.27
2022-08-16T14:27:45.047Z,9.73
2022-08-16T14:30:16.623Z,9.40
2022-08-16T14:32:46.844Z,9.90
2022-08-16T14:35:36.601Z,11.57
2022-08-16T14:38:13.535Z,9.83
2022-08-16T14:40:52.819Z,11.93
2022-08-16T14:43:23.876Z,12.53
2022-08-16T14:45:55.898Z,13.40
2022-08-16T14:48:26.271Z,13.30
2022-08-16T14:50:55.393Z,15.00
2022-08-16T14:53:26.608Z,16.17
2022-08-16T14:55:54.842Z,16.60
2022-08-16T14:58:35.146Z,15.03
2022-08-16T15:01:10.237Z,16.83
2022-08-16T15:03:38.804Z,15.43
2022-08-16T15:06:16.282Z,15.00
2022-08-16T15:08:48.522Z,15.17
2022-08-16T15:11:19.291Z,15.20
2022-08-16T15:13:49.730Z,15.23
2022-08-16T15:16:20.072Z,13.80
2022-08-16T15:18:49.085Z,13.90
2022-08-16T15:21:18.288Z,13.90
2022-08-16T15:23:48.508Z,14.80
2022-08-16T15:26:18.810Z,15.33
2022-08-16T15:29:06.304Z,14.53
2022-08-16T15:31:36.570Z,14.73
2022-08-16T15:34:05.347Z,15.57
2022-08-16T15:36:34.293Z,15.47
2022-08-16T15:39:30.223Z,15.70
2022-08-16T15:42:07.335Z,15.23
2022-08-16T15:44:52.032Z,15.00
2022-08-16T15:47:26.426Z,13.00
2022-08-16T15:49:56.133Z,12.83
2022-08-16T15:52:29.708Z,12.87
2022-08-16T15:55:12.754Z,12.07
2022-08-16T15:57:45.134Z,11.93
2022-08-16T16:00:15.775Z,13.10
2022-08-16T16:02:45.346Z,23.47
2022-08-16T16:05:14.549Z,66.77
2022-08-16T16:07:56.586Z,112.87
2022-08-16T16:10:37.576Z,55.13
2022-08-16T16:13:09.432Z,25.83
2022-08-16T16:15:40.620Z,17.07
2022-08-16T16:18:12.027Z,13.80
2022-08-16T16:20:43.906Z,18.43
2022-08-16T16:23:12.461Z,15.50
2022-08-16T16:25:44.710Z,15.87
2022-08-16T16:29:05.958Z,14.07
2022-08-16T16:31:06.005Z,13.83
2022-08-16T16:33:37.153Z,13.47
2022-08-16T16:36:07.219Z,14.40
2022-08-16T16:38:36.270Z,13.80
2022-08-16T16:41:11.912Z,15.83
2022-08-16T16:43:42.656Z,14.67
2022-08-16T16:46:39.044Z,13.60
2022-08-16T16:49:08.681Z,14.27
2022-08-16T16:51:41.253Z,14.47
2022-08-16T16:54:22.473Z,13.80
2022-08-16T16:56:58.984Z,15.13
2022-08-16T16:59:28.387Z,14.07
2022-08-16T17:02:01.542Z,13.70
2022-08-16T17:04:47.213Z,14.07
2022-08-16T17:07:23.870Z,13.87
2022-08-16T17:09:52.967Z,14.80
2022-08-16T17:12:25.137Z,13.37
2022-08-16T17:14:54.045Z,14.13
2022-08-16T17:17:22.746Z,14.67
2022-08-16T17:19:51.388Z,13.67
2022-08-16T17:22:22.201Z,14.20
2022-08-16T17:24:53.339Z,14.07
2022-08-16T17:27:32.812Z,13.73
2022-08-16T17:30:03.214Z,13.90
2022-08-16T17:32:48.193Z,14.10
2022-08-16T17:35:20.665Z,15.73
2022-08-16T17:37:52.165Z,14.40
2022-08-16T17:40:40.574Z,15.37
2022-08-16T17:43:14.971Z,13.93
2022-08-16T17:45:45.073Z,15.00
2022-08-16T17:48:13.761Z,16.53
2022-08-16T17:50:43.605Z,14.50
2022-08-16T17:53:12.879Z,15.13
2022-08-16T17:55:47.489Z,14.33
2022-08-16T17:58:22.734Z,14.07
2022-08-16T18:00:53.458Z,15.93
2022-08-16T18:04:02.334Z,13.17
2022-08-16T18:06:17.017Z,15.00
2022-08-16T18:08:48.919Z,13.70
2022-08-16T18:11:26.127Z,16.83
2022-08-16T18:13:56.729Z,13.83
2022-08-16T18:16:25.731Z,14.07
2022-08-16T18:18:54.106Z,13.30
2022-08-16T18:21:40.923Z,15.37
2022-08-16T18:24:10.315Z,16.00
2022-08-16T18:26:39.045Z,13.43
2022-08-16T18:29:09.119Z,14.10
2022-08-16T18:31:37.525Z,14.13
2022-08-16T18:34:07.229Z,12.40
2022-08-16T18:36:37.326Z,11.33
2022-08-16T18:39:05.875Z,11.83
2022-08-16T18:41:37.179Z,11.87
2022-08-16T18:44:25.358Z,10.50
2022-08-16T18:46:57.708Z,10.87
2022-08-16T18:49:26.106Z,10.00
2022-08-16T18:51:58.285Z,10.67
2022-08-16T18:54:28.707Z,10.47
2022-08-16T18:56:58.268Z,10.40
2022-08-16T18:59:28.765Z,11.10
2022-08-16T19:02:04.197Z,10.87
2022-08-16T19:04:54.879Z,11.20
2022-08-16T19:07:29.633Z,10.73
2022-08-16T19:09:59.072Z,10.90
2022-08-16T19:12:38.020Z,10.50
2022-08-16T19:15:19.121Z,10.27
2022-08-16T19:17:49.329Z,11.40
2022-08-16T19:20:20.665Z,10.63
2022-08-16T19:23:04.437Z,10.80
2022-08-16T19:25:47.926Z,9.93
2022-08-16T19:28:49.812Z,12.17
2022-08-16T19:31:11.120Z,10.53
2022-08-16T19:33:42.232Z,10.53
2022-08-16T19:36:31.956Z,12.13
2022-08-16T19:39:04.581Z,9.97
2022-08-16T19:41:35.698Z,10.40
2022-08-16T19:44:05.181Z,10.63
2022-08-16T19:46:33.615Z,10.37
2022-08-16T19:49:03.421Z,10.13
2022-08-16T19:51:31.752Z,9.97
2022-08-16T19:54:00.445Z,12.10
2022-08-16T19:56:28.797Z,11.73
2022-08-16T19:59:18.037Z,10.10
2022-08-16T20:01:46.653Z,10.23
2022-08-16T20:04:16.745Z,10.60
2022-08-16T20:06:44.921Z,11.03
2022-08-16T20:09:16.399Z,10.63
2022-08-16T20:11:45.883Z,9.37
2022-08-16T20:14:19.247Z,11.00
2022-08-16T20:16:55.829Z,11.70
2022-08-16T20:19:35.186Z,9.90
2022-08-16T20:22:51.853Z,11.03
2022-08-16T20:25:18.120Z,9.00
2022-08-16T20:27:47.245Z,9.67
2022-08-16T20:30:17.934Z,9.23
2022-08-16T20:32:48.485Z,10.03
2022-08-16T20:35:21.572Z,10.77
2022-08-16T20:37:50.161Z,10.40
2022-08-16T20:40:34.300Z,8.77
2022-08-16T20:43:06.679Z,9.37
2022-08-16T20:45:35.458Z,9.10
2022-08-16T20:48:04.006Z,9.40
2022-08-16T20:50:34.294Z,9.43
2022-08-16T20:53:03.224Z,8.07
2022-08-16T20:55:32.447Z,9.13
2022-08-16T20:58:00.944Z,8.13
2022-08-16T21:00:29.408Z,8.13
2022-08-16T21:02:57.987Z,7.43
2022-08-16T21:05:31.268Z,6.70
2022-08-16T21:08:50.346Z,6.90
2022-08-16T21:10:52.061Z,6.70
2022-08-16T21:13:21.950Z,6.63
2022-08-16T21:15:51.867Z,7.33
2022-08-16T21:18:20.238Z,6.70
2022-08-16T21:20:48.617Z,5.03
2022-08-16T21:23:19.157Z,5.83
2022-08-16T21:25:58.944Z,5.30
2022-08-16T21:28:41.237Z,5.17
2022-08-16T21:31:11.158Z,5.80
2022-08-16T21:33:39.518Z,5.53
2022-08-16T21:36:09.484Z,5.30
2022-08-16T21:38:40.830Z,5.90
2022-08-16T21:41:11.516Z,6.20
2022-08-16T21:43:41.381Z,5.30
2022-08-16T21:46:10.811Z,5.60
2022-08-16T21:48:40.555Z,5.90
2022-08-16T21:51:14.874Z,5.23
2022-08-16T21:53:50.121Z,6.43
2022-08-16T21:56:19.192Z,5.83
2022-08-16T21:58:53.311Z,5.53
2022-08-16T22:01:23.597Z,6.80
2022-08-16T22:04:35.736Z,6.30
2022-08-16T22:06:42.894Z,7.20
2022-08-16T22:09:16.501Z,7.10
2022-08-16T22:11:47.210Z,6.87
2022-08-16T22:14:16.101Z,7.13
2022-08-16T22:16:47.355Z,7.70
2022-08-16T22:19:16.323Z,7.40
2022-08-16T22:21:47.515Z,7.37
2022-08-16T22:24:19.059Z,7.50
2022-08-16T22:26:47.941Z,8.30
2022-08-16T22:29:19.875Z,8.87
2022-08-16T22:31:48.966Z,8.13
2022-08-16T22:34:18.387Z,8.30
2022-08-16T22:36:48.240Z,9.30
2022-08-16T22:39:19.221Z,9.83
2022-08-16T22:41:50.374Z,8.50
2022-08-16T22:44:19.741Z,9.00
2022-08-16T22:46:49.033Z,8.37
2022-08-16T22:49:18.059Z,8.60
2022-08-16T22:51:49.320Z,8.80
2022-08-16T22:54:44.225Z,8.83
2022-08-16T22:57:09.954Z,9.47
2022-08-16T22:59:38.575Z,9.07
2022-08-16T23:02:10.401Z,9.00
2022-08-16T23:04:39.485Z,9.60
2022-08-16T23:07:08.221Z,9.27
2022-08-16T23:09:38.266Z,9.67
2022-08-16T23:12:07.690Z,10.37
2022-08-16T23:14:37.245Z,10.43
2022-08-16T23:17:05.394Z,10.10
2022-08-16T23:19:34.262Z,10.83
2022-08-16T23:22:02.432Z,9.67
2022-08-16T23:24:37.092Z,9.57
2022-08-16T23:27:18.782Z,9.37
2022-08-16T23:29:47.416Z,10.70
2022-08-16T23:32:19.134Z,10.37
2022-08-16T23:34:47.328Z,9.70
2022-08-16T23:37:20.029Z,9.80
2022-08-16T23:39:48.685Z,10.33
2022-08-16T23:42:52.560Z,9.33
2022-08-16T23:45:12.648Z,9.87
2022-08-16T23:47:41.082Z,9.50
2022-08-16T23:50:10.406Z,10.40
2022-08-16T23:52:54.590Z,10.00
2022-08-16T23:55:24.309Z,9.23
2022-08-16T23:57:54.379Z,10.77
